sensor_id;sensor_type;location;lat;lon;timestamp;P1;durP1;ratioP1;P2;durP2;ratioP2
14116;SDS011;7137;51.436;6.544;2023-05-10T00:02:53;18.07;;;16.13;;
14116;SDS011;7137;51.436;6.544;2023-05-10T00:05:54;17.80;;;15.90;;
14116;SDS011;7137;51.436;6.544;2023-05-10T00:08:57;18.60;;;16.23;;
14116;SDS011;7137;51.436;6.544;2023-05-10T00:11:59;18.80;;;16.80;;
14116;SDS011;7137;51.436;6.544;2023-05-10T00:15:00;19.83;;;17.73;;
14116;SDS011;7137;51.436;6.544;2023-05-10T00:18:02;20.97;;;17.00;;
14116;SDS011;7137;51.436;6.544;2023-05-10T00:21:04;19.57;;;17.47;;
14116;SDS011;7137;51.436;6.544;2023-05-10T00:24:07;19.23;;;16.57;;
14116;SDS011;7137;51.436;6.544;2023-05-10T00:27:09;20.00;;;17.83;;
14116;SDS011;7137;51.436;6.544;2023-05-10T00:30:11;20.73;;;17.97;;
14116;SDS011;7137;51.436;6.544;2023-05-10T00:33:12;21.17;;;18.90;;
14116;SDS011;7137;51.436;6.544;2023-05-10T00:36:14;20.37;;;17.73;;
14116;SDS011;7137;51.436;6.544;2023-05-10T00:39:17;20.83;;;18.63;;
14116;SDS011;7137;51.436;6.544;2023-05-10T00:42:18;20.40;;;18.10;;
14116;SDS011;7137;51.436;6.544;2023-05-10T00:45:20;20.23;;;18.00;;
14116;SDS011;7137;51.436;6.544;2023-05-10T00:48:21;20.13;;;18.03;;
14116;SDS011;7137;51.436;6.544;2023-05-10T00:51:23;17.97;;;16.07;;
14116;SDS011;7137;51.436;6.544;2023-05-10T00:54:27;18.80;;;16.43;;
14116;SDS011;7137;51.436;6.544;2023-05-10T00:57:29;19.53;;;17.20;;
14116;SDS011;7137;51.436;6.544;2023-05-10T01:00:30;20.30;;;17.07;;
14116;SDS011;7137;51.436;6.544;2023-05-10T01:03:34;19.77;;;17.63;;
14116;SDS011;7137;51.436;6.544;2023-05-10T01:06:37;18.67;;;16.73;;
14116;SDS011;7137;51.436;6.544;2023-05-10T01:09:39;19.40;;;17.33;;
14116;SDS011;7137;51.436;6.544;2023-05-10T01:12:42;19.07;;;17.07;;
14116;SDS011;7137;51.436;6.544;2023-05-10T01:15:46;19.73;;;17.73;;
14116;SDS011;7137;51.436;6.544;2023-05-10T01:18:47;18.83;;;16.83;;
14116;SDS011;7137;51.436;6.544;2023-05-10T01:21:53;18.40;;;16.40;;
14116;SDS011;7137;51.436;6.544;2023-05-10T01:25:08;18.77;;;16.87;;
14116;SDS011;7137;51.436;6.544;2023-05-10T01:28:26;17.67;;;15.80;;
14116;SDS011;7137;51.436;6.544;2023-05-10T01:35:22;16.50;;;14.77;;
14116;SDS011;7137;51.436;6.544;2023-05-10T01:38:32;15.80;;;14.20;;
14116;SDS011;7137;51.436;6.544;2023-05-10T01:41:42;16.00;;;14.17;;
14116;SDS011;7137;51.436;6.544;2023-05-10T01:44:52;15.40;;;13.80;;
14116;SDS011;7137;51.436;6.544;2023-05-10T01:48:03;16.07;;;13.93;;
14116;SDS011;7137;51.436;6.544;2023-05-10T01:51:07;15.20;;;13.43;;
14116;SDS011;7137;51.436;6.544;2023-05-10T01:54:10;15.03;;;13.43;;
14116;SDS011;7137;51.436;6.544;2023-05-10T01:57:14;16.30;;;14.60;;
14116;SDS011;7137;51.436;6.544;2023-05-10T02:00:19;17.47;;;14.77;;
14116;SDS011;7137;51.436;6.544;2023-05-10T02:03:23;17.03;;;14.40;;
14116;SDS011;7137;51.436;6.544;2023-05-10T02:06:27;17.83;;;15.40;;
14116;SDS011;7137;51.436;6.544;2023-05-10T02:09:29;16.13;;;14.43;;
14116;SDS011;7137;51.436;6.544;2023-05-10T02:12:34;18.13;;;15.60;;
14116;SDS011;7137;51.436;6.544;2023-05-10T02:15:37;17.57;;;14.77;;
14116;SDS011;7137;51.436;6.544;2023-05-10T02:18:42;16.80;;;14.50;;
14116;SDS011;7137;51.436;6.544;2023-05-10T02:21:45;18.47;;;14.70;;
14116;SDS011;7137;51.436;6.544;2023-05-10T02:24:47;19.17;;;14.67;;
14116;SDS011;7137;51.436;6.544;2023-05-10T02:27:50;17.50;;;14.13;;
14116;SDS011;7137;51.436;6.544;2023-05-10T02:30:56;17.60;;;14.83;;
14116;SDS011;7137;51.436;6.544;2023-05-10T02:33:59;18.33;;;14.87;;
14116;SDS011;7137;51.436;6.544;2023-05-10T02:37:02;17.13;;;14.50;;
14116;SDS011;7137;51.436;6.544;2023-05-10T02:40:06;16.83;;;13.93;;
14116;SDS011;7137;51.436;6.544;2023-05-10T02:43:11;16.30;;;13.33;;
14116;SDS011;7137;51.436;6.544;2023-05-10T02:46:15;15.00;;;12.87;;
14116;SDS011;7137;51.436;6.544;2023-05-10T02:49:18;16.60;;;13.73;;
14116;SDS011;7137;51.436;6.544;2023-05-10T02:52:21;15.20;;;12.73;;
14116;SDS011;7137;51.436;6.544;2023-05-10T02:55:26;14.10;;;12.60;;
14116;SDS011;7137;51.436;6.544;2023-05-10T02:58:32;14.60;;;13.00;;
14116;SDS011;7137;51.436;6.544;2023-05-10T03:01:34;13.47;;;12.07;;
14116;SDS011;7137;51.436;6.544;2023-05-10T03:04:37;15.57;;;12.37;;
14116;SDS011;7137;51.436;6.544;2023-05-10T03:07:39;16.03;;;12.80;;
14116;SDS011;7137;51.436;6.544;2023-05-10T03:10:41;15.73;;;13.63;;
14116;SDS011;7137;51.436;6.544;2023-05-10T03:13:54;17.87;;;14.10;;
14116;SDS011;7137;51.436;6.544;2023-05-10T03:17:04;19.13;;;14.50;;
14116;SDS011;7137;51.436;6.544;2023-05-10T03:20:12;17.63;;;15.17;;
14116;SDS011;7137;51.436;6.544;2023-05-10T03:23:22;18.80;;;15.37;;
14116;SDS011;7137;51.436;6.544;2023-05-10T03:26:28;20.60;;;15.60;;
14116;SDS011;7137;51.436;6.544;2023-05-10T03:29:31;17.23;;;14.47;;
14116;SDS011;7137;51.436;6.544;2023-05-10T03:32:33;20.47;;;15.43;;
14116;SDS011;7137;51.436;6.544;2023-05-10T03:35:36;18.57;;;15.27;;
14116;SDS011;7137;51.436;6.544;2023-05-10T03:38:38;18.07;;;14.73;;
14116;SDS011;7137;51.436;6.544;2023-05-10T03:41:39;20.40;;;16.03;;
14116;SDS011;7137;51.436;6.544;2023-05-10T03:44:41;17.70;;;14.33;;
14116;SDS011;7137;51.436;6.544;2023-05-10T03:47:42;18.87;;;16.47;;
14116;SDS011;7137;51.436;6.544;2023-05-10T03:50:45;19.67;;;16.53;;
14116;SDS011;7137;51.436;6.544;2023-05-10T03:53:49;19.90;;;17.00;;
14116;SDS011;7137;51.436;6.544;2023-05-10T03:56:50;22.43;;;18.10;;
14116;SDS011;7137;51.436;6.544;2023-05-10T03:59:52;21.63;;;17.53;;
14116;SDS011;7137;51.436;6.544;2023-05-10T04:02:53;22.10;;;18.43;;
14116;SDS011;7137;51.436;6.544;2023-05-10T04:05:59;22.63;;;18.97;;
14116;SDS011;7137;51.436;6.544;2023-05-10T04:09:01;23.50;;;19.30;;
14116;SDS011;7137;51.436;6.544;2023-05-10T04:12:04;22.30;;;19.83;;
14116;SDS011;7137;51.436;6.544;2023-05-10T04:15:06;22.27;;;19.40;;
14116;SDS011;7137;51.436;6.544;2023-05-10T04:18:09;26.40;;;22.00;;
14116;SDS011;7137;51.436;6.544;2023-05-10T04:21:12;26.23;;;22.20;;
14116;SDS011;7137;51.436;6.544;2023-05-10T04:24:15;27.17;;;22.30;;
14116;SDS011;7137;51.436;6.544;2023-05-10T04:27:16;26.87;;;22.20;;
14116;SDS011;7137;51.436;6.544;2023-05-10T04:30:18;27.47;;;23.00;;
14116;SDS011;7137;51.436;6.544;2023-05-10T04:33:19;26.17;;;22.63;;
14116;SDS011;7137;51.436;6.544;2023-05-10T04:36:22;28.37;;;23.73;;
14116;SDS011;7137;51.436;6.544;2023-05-10T04:39:24;26.27;;;22.63;;
14116;SDS011;7137;51.436;6.544;2023-05-10T04:42:25;26.97;;;22.57;;
14116;SDS011;7137;51.436;6.544;2023-05-10T04:45:27;27.70;;;24.07;;
14116;SDS011;7137;51.436;6.544;2023-05-10T04:48:28;29.07;;;24.23;;
14116;SDS011;7137;51.436;6.544;2023-05-10T04:51:31;31.67;;;25.17;;
14116;SDS011;7137;51.436;6.544;2023-05-10T04:54:33;29.07;;;24.77;;
14116;SDS011;7137;51.436;6.544;2023-05-10T04:57:35;31.33;;;26.37;;
14116;SDS011;7137;51.436;6.544;2023-05-10T05:00:36;29.87;;;25.23;;
14116;SDS011;7137;51.436;6.544;2023-05-10T05:03:38;31.57;;;26.20;;
14116;SDS011;7137;51.436;6.544;2023-05-10T05:06:42;31.47;;;25.43;;
14116;SDS011;7137;51.436;6.544;2023-05-10T05:09:43;34.97;;;27.30;;
14116;SDS011;7137;51.436;6.544;2023-05-10T05:12:45;33.83;;;26.90;;
14116;SDS011;7137;51.436;6.544;2023-05-10T05:15:46;32.13;;;26.40;;
14116;SDS011;7137;51.436;6.544;2023-05-10T05:18:48;31.50;;;26.17;;
14116;SDS011;7137;51.436;6.544;2023-05-10T05:21:51;30.83;;;26.47;;
14116;SDS011;7137;51.436;6.544;2023-05-10T05:24:52;33.03;;;26.17;;
14116;SDS011;7137;51.436;6.544;2023-05-10T05:27:54;32.37;;;26.77;;
14116;SDS011;7137;51.436;6.544;2023-05-10T05:30:56;32.87;;;27.13;;
14116;SDS011;7137;51.436;6.544;2023-05-10T05:33:57;36.90;;;28.33;;
14116;SDS011;7137;51.436;6.544;2023-05-10T05:37:00;37.60;;;28.83;;
14116;SDS011;7137;51.436;6.544;2023-05-10T05:40:02;38.43;;;30.47;;
14116;SDS011;7137;51.436;6.544;2023-05-10T05:43:04;36.50;;;28.50;;
14116;SDS011;7137;51.436;6.544;2023-05-10T05:46:05;35.50;;;27.30;;
14116;SDS011;7137;51.436;6.544;2023-05-10T05:49:07;35.67;;;28.20;;
14116;SDS011;7137;51.436;6.544;2023-05-10T05:52:10;38.10;;;28.60;;
14116;SDS011;7137;51.436;6.544;2023-05-10T05:55:11;36.63;;;29.13;;
14116;SDS011;7137;51.436;6.544;2023-05-10T05:58:13;40.10;;;30.13;;
14116;SDS011;7137;51.436;6.544;2023-05-10T06:01:14;38.63;;;29.50;;
14116;SDS011;7137;51.436;6.544;2023-05-10T06:04:16;40.60;;;29.67;;
14116;SDS011;7137;51.436;6.544;2023-05-10T06:07:19;43.40;;;30.63;;
14116;SDS011;7137;51.436;6.544;2023-05-10T06:10:22;41.07;;;30.63;;
14116;SDS011;7137;51.436;6.544;2023-05-10T06:13:25;42.53;;;29.97;;
14116;SDS011;7137;51.436;6.544;2023-05-10T06:16:28;40.63;;;29.63;;
14116;SDS011;7137;51.436;6.544;2023-05-10T06:19:30;41.77;;;30.47;;
14116;SDS011;7137;51.436;6.544;2023-05-10T06:22:33;42.70;;;29.93;;
14116;SDS011;7137;51.436;6.544;2023-05-10T06:25:35;42.20;;;30.23;;
14116;SDS011;7137;51.436;6.544;2023-05-10T06:28:36;41.50;;;30.17;;
14116;SDS011;7137;51.436;6.544;2023-05-10T06:31:39;41.57;;;29.60;;
14116;SDS011;7137;51.436;6.544;2023-05-10T06:34:40;43.90;;;29.63;;
14116;SDS011;7137;51.436;6.544;2023-05-10T06:37:44;43.77;;;31.03;;
14116;SDS011;7137;51.436;6.544;2023-05-10T06:40:46;42.17;;;30.50;;
14116;SDS011;7137;51.436;6.544;2023-05-10T06:43:48;40.03;;;29.43;;
14116;SDS011;7137;51.436;6.544;2023-05-10T06:46:49;38.23;;;29.23;;
14116;SDS011;7137;51.436;6.544;2023-05-10T06:49:52;43.40;;;29.43;;
14116;SDS011;7137;51.436;6.544;2023-05-10T06:52:56;38.73;;;28.30;;
14116;SDS011;7137;51.436;6.544;2023-05-10T06:55:58;38.60;;;27.57;;
14116;SDS011;7137;51.436;6.544;2023-05-10T06:58:59;41.03;;;28.90;;
14116;SDS011;7137;51.436;6.544;2023-05-10T07:02:01;42.93;;;28.77;;
14116;SDS011;7137;51.436;6.544;2023-05-10T07:05:02;41.70;;;30.27;;
14116;SDS011;7137;51.436;6.544;2023-05-10T07:08:06;43.20;;;29.70;;
14116;SDS011;7137;51.436;6.544;2023-05-10T07:11:08;44.23;;;29.77;;
14116;SDS011;7137;51.436;6.544;2023-05-10T07:14:10;44.83;;;29.77;;
14116;SDS011;7137;51.436;6.544;2023-05-10T07:17:11;44.03;;;30.80;;
14116;SDS011;7137;51.436;6.544;2023-05-10T07:20:13;47.47;;;30.60;;
14116;SDS011;7137;51.436;6.544;2023-05-10T07:23:16;41.83;;;29.23;;
14116;SDS011;7137;51.436;6.544;2023-05-10T07:26:18;40.87;;;28.63;;
14116;SDS011;7137;51.436;6.544;2023-05-10T07:29:21;41.83;;;29.37;;
14116;SDS011;7137;51.436;6.544;2023-05-10T07:32:22;41.87;;;28.10;;
14116;SDS011;7137;51.436;6.544;2023-05-10T07:35:24;40.23;;;29.10;;
14116;SDS011;7137;51.436;6.544;2023-05-10T07:38:27;42.80;;;29.87;;
14116;SDS011;7137;51.436;6.544;2023-05-10T07:41:28;43.50;;;29.73;;
14116;SDS011;7137;51.436;6.544;2023-05-10T07:44:30;38.77;;;27.80;;
14116;SDS011;7137;51.436;6.544;2023-05-10T07:47:32;37.20;;;27.17;;
14116;SDS011;7137;51.436;6.544;2023-05-10T07:50:33;37.67;;;27.60;;
14116;SDS011;7137;51.436;6.544;2023-05-10T07:53:36;37.13;;;27.03;;
14116;SDS011;7137;51.436;6.544;2023-05-10T07:56:38;35.60;;;26.50;;
14116;SDS011;7137;51.436;6.544;2023-05-10T07:59:44;38.90;;;27.50;;
14116;SDS011;7137;51.436;6.544;2023-05-10T08:02:47;40.27;;;28.67;;
14116;SDS011;7137;51.436;6.544;2023-05-10T08:05:48;39.33;;;29.03;;
14116;SDS011;7137;51.436;6.544;2023-05-10T08:08:51;33.77;;;26.57;;
14116;SDS011;7137;51.436;6.544;2023-05-10T08:11:54;33.27;;;25.37;;
14116;SDS011;7137;51.436;6.544;2023-05-10T08:14:55;29.83;;;24.33;;
14116;SDS011;7137;51.436;6.544;2023-05-10T08:17:57;30.70;;;23.60;;
14116;SDS011;7137;51.436;6.544;2023-05-10T08:20:58;30.33;;;23.97;;
14116;SDS011;7137;51.436;6.544;2023-05-10T08:24:01;27.30;;;22.77;;
14116;SDS011;7137;51.436;6.544;2023-05-10T08:27:04;26.97;;;21.77;;
14116;SDS011;7137;51.436;6.544;2023-05-10T08:30:06;28.67;;;22.43;;
14116;SDS011;7137;51.436;6.544;2023-05-10T08:33:08;44.87;;;29.70;;
14116;SDS011;7137;51.436;6.544;2023-05-10T08:36:10;23.50;;;19.43;;
14116;SDS011;7137;51.436;6.544;2023-05-10T08:39:15;22.87;;;17.33;;
14116;SDS011;7137;51.436;6.544;2023-05-10T08:42:19;19.73;;;15.83;;
14116;SDS011;7137;51.436;6.544;2023-05-10T08:45:24;18.40;;;15.13;;
14116;SDS011;7137;51.436;6.544;2023-05-10T08:48:28;22.90;;;15.23;;
14116;SDS011;7137;51.436;6.544;2023-05-10T08:51:31;20.97;;;16.03;;
14116;SDS011;7137;51.436;6.544;2023-05-10T08:54:39;20.07;;;14.53;;
14116;SDS011;7137;51.436;6.544;2023-05-10T08:57:41;20.03;;;14.00;;
14116;SDS011;7137;51.436;6.544;2023-05-10T09:00:43;19.20;;;13.97;;
14116;SDS011;7137;51.436;6.544;2023-05-10T09:03:45;24.00;;;15.43;;
14116;SDS011;7137;51.436;6.544;2023-05-10T09:06:47;20.17;;;16.60;;
14116;SDS011;7137;51.436;6.544;2023-05-10T09:09:50;18.83;;;15.57;;
14116;SDS011;7137;51.436;6.544;2023-05-10T09:12:53;18.20;;;15.53;;
14116;SDS011;7137;51.436;6.544;2023-05-10T09:15:54;19.90;;;17.37;;
14116;SDS011;7137;51.436;6.544;2023-05-10T09:18:56;20.43;;;17.83;;
14116;SDS011;7137;51.436;6.544;2023-05-10T09:21:58;20.87;;;16.60;;
14116;SDS011;7137;51.436;6.544;2023-05-10T09:25:05;21.97;;;17.10;;
14116;SDS011;7137;51.436;6.544;2023-05-10T09:28:07;20.13;;;16.67;;
14116;SDS011;7137;51.436;6.544;2023-05-10T09:31:09;20.97;;;16.90;;
14116;SDS011;7137;51.436;6.544;2023-05-10T09:34:11;27.37;;;18.00;;
14116;SDS011;7137;51.436;6.544;2023-05-10T09:37:18;21.23;;;16.10;;
14116;SDS011;7137;51.436;6.544;2023-05-10T09:40:31;22.33;;;16.80;;
14116;SDS011;7137;51.436;6.544;2023-05-10T09:43:37;22.17;;;17.47;;
14116;SDS011;7137;51.436;6.544;2023-05-10T09:46:39;25.70;;;17.60;;
14116;SDS011;7137;51.436;6.544;2023-05-10T09:49:41;25.83;;;17.43;;
14116;SDS011;7137;51.436;6.544;2023-05-10T09:52:46;22.03;;;16.50;;
14116;SDS011;7137;51.436;6.544;2023-05-10T09:55:50;23.20;;;17.60;;
14116;SDS011;7137;51.436;6.544;2023-05-10T09:59:01;22.03;;;17.43;;
14116;SDS011;7137;51.436;6.544;2023-05-10T10:02:03;18.90;;;16.90;;
14116;SDS011;7137;51.436;6.544;2023-05-10T10:05:06;20.23;;;16.70;;
14116;SDS011;7137;51.436;6.544;2023-05-10T10:08:09;23.00;;;17.97;;
14116;SDS011;7137;51.436;6.544;2023-05-10T10:11:13;21.30;;;17.43;;
14116;SDS011;7137;51.436;6.544;2023-05-10T10:14:15;21.00;;;17.27;;
14116;SDS011;7137;51.436;6.544;2023-05-10T10:17:19;19.47;;;17.20;;
14116;SDS011;7137;51.436;6.544;2023-05-10T10:20:21;22.67;;;17.77;;
14116;SDS011;7137;51.436;6.544;2023-05-10T10:23:25;22.10;;;19.30;;
14116;SDS011;7137;51.436;6.544;2023-05-10T10:26:30;23.63;;;19.10;;
14116;SDS011;7137;51.436;6.544;2023-05-10T10:29:33;21.77;;;18.23;;
14116;SDS011;7137;51.436;6.544;2023-05-10T10:32:45;21.37;;;18.23;;
14116;SDS011;7137;51.436;6.544;2023-05-10T10:36:06;18.67;;;16.70;;
14116;SDS011;7137;51.436;6.544;2023-05-10T10:39:09;19.40;;;17.13;;
14116;SDS011;7137;51.436;6.544;2023-05-10T10:42:13;19.10;;;15.87;;
14116;SDS011;7137;51.436;6.544;2023-05-10T10:45:14;18.93;;;15.33;;
14116;SDS011;7137;51.436;6.544;2023-05-10T10:48:19;17.20;;;14.73;;
14116;SDS011;7137;51.436;6.544;2023-05-10T10:51:22;16.80;;;14.60;;
14116;SDS011;7137;51.436;6.544;2023-05-10T10:54:26;15.90;;;14.20;;
14116;SDS011;7137;51.436;6.544;2023-05-10T10:57:32;17.97;;;14.03;;
14116;SDS011;7137;51.436;6.544;2023-05-10T11:00:43;16.67;;;14.27;;
14116;SDS011;7137;51.436;6.544;2023-05-10T11:04:16;16.90;;;14.10;;
14116;SDS011;7137;51.436;6.544;2023-05-10T11:07:21;15.07;;;13.33;;
14116;SDS011;7137;51.436;6.544;2023-05-10T11:10:23;15.50;;;13.40;;
14116;SDS011;7137;51.436;6.544;2023-05-10T11:13:27;13.33;;;11.67;;
14116;SDS011;7137;51.436;6.544;2023-05-10T11:16:40;13.60;;;11.83;;
14116;SDS011;7137;51.436;6.544;2023-05-10T11:19:53;12.60;;;11.10;;
14116;SDS011;7137;51.436;6.544;2023-05-10T11:23:10;11.53;;;9.60;;
14116;SDS011;7137;51.436;6.544;2023-05-10T11:26:15;12.30;;;10.57;;
14116;SDS011;7137;51.436;6.544;2023-05-10T11:29:18;11.20;;;9.73;;
14116;SDS011;7137;51.436;6.544;2023-05-10T11:32:20;11.17;;;9.97;;
14116;SDS011;7137;51.436;6.544;2023-05-10T11:35:23;12.83;;;8.90;;
14116;SDS011;7137;51.436;6.544;2023-05-10T11:38:25;11.53;;;9.23;;
14116;SDS011;7137;51.436;6.544;2023-05-10T11:41:27;10.17;;;9.17;;
14116;SDS011;7137;51.436;6.544;2023-05-10T11:44:30;10.43;;;9.13;;
14116;SDS011;7137;51.436;6.544;2023-05-10T11:47:33;12.63;;;9.53;;
14116;SDS011;7137;51.436;6.544;2023-05-10T11:50:38;10.77;;;9.10;;
14116;SDS011;7137;51.436;6.544;2023-05-10T11:53:40;12.00;;;8.63;;
14116;SDS011;7137;51.436;6.544;2023-05-10T11:56:41;9.87;;;8.40;;
14116;SDS011;7137;51.436;6.544;2023-05-10T11:59:43;10.33;;;9.17;;
14116;SDS011;7137;51.436;6.544;2023-05-10T12:02:45;9.83;;;8.83;;
14116;SDS011;7137;51.436;6.544;2023-05-10T12:05:49;10.83;;;8.40;;
14116;SDS011;7137;51.436;6.544;2023-05-10T12:08:51;8.57;;;7.60;;
14116;SDS011;7137;51.436;6.544;2023-05-10T12:11:55;10.03;;;7.40;;
14116;SDS011;7137;51.436;6.544;2023-05-10T12:14:57;9.23;;;7.93;;
14116;SDS011;7137;51.436;6.544;2023-05-10T12:17:59;9.30;;;6.90;;
14116;SDS011;7137;51.436;6.544;2023-05-10T12:21:04;9.10;;;7.30;;
14116;SDS011;7137;51.436;6.544;2023-05-10T12:24:05;8.33;;;7.30;;
14116;SDS011;7137;51.436;6.544;2023-05-10T12:27:08;9.90;;;6.60;;
14116;SDS011;7137;51.436;6.544;2023-05-10T12:30:11;9.27;;;7.10;;
14116;SDS011;7137;51.436;6.544;2023-05-10T12:33:14;7.73;;;6.63;;
14116;SDS011;7137;51.436;6.544;2023-05-10T12:36:22;8.43;;;7.00;;
14116;SDS011;7137;51.436;6.544;2023-05-10T12:39:25;8.10;;;6.77;;
14116;SDS011;7137;51.436;6.544;2023-05-10T12:42:27;8.90;;;6.60;;
14116;SDS011;7137;51.436;6.544;2023-05-10T12:45:29;7.50;;;6.50;;
14116;SDS011;7137;51.436;6.544;2023-05-10T12:48:30;8.80;;;7.57;;
14116;SDS011;7137;51.436;6.544;2023-05-10T12:51:35;8.80;;;7.90;;
14116;SDS011;7137;51.436;6.544;2023-05-10T12:54:36;9.50;;;8.37;;
14116;SDS011;7137;51.436;6.544;2023-05-10T12:57:38;9.60;;;8.33;;
14116;SDS011;7137;51.436;6.544;2023-05-10T13:00:39;9.93;;;8.93;;
14116;SDS011;7137;51.436;6.544;2023-05-10T13:03:41;11.80;;;10.50;;
14116;SDS011;7137;51.436;6.544;2023-05-10T13:06:45;12.30;;;10.77;;
14116;SDS011;7137;51.436;6.544;2023-05-10T13:09:46;9.80;;;8.47;;
14116;SDS011;7137;51.436;6.544;2023-05-10T13:12:48;10.03;;;8.50;;
14116;SDS011;7137;51.436;6.544;2023-05-10T13:15:49;10.90;;;9.47;;
14116;SDS011;7137;51.436;6.544;2023-05-10T13:18:51;11.27;;;9.90;;
14116;SDS011;7137;51.436;6.544;2023-05-10T13:21:54;11.20;;;9.20;;
14116;SDS011;7137;51.436;6.544;2023-05-10T13:24:55;10.43;;;9.33;;
14116;SDS011;7137;51.436;6.544;2023-05-10T13:27:57;10.93;;;9.83;;
14116;SDS011;7137;51.436;6.544;2023-05-10T13:30:58;12.47;;;11.17;;
14116;SDS011;7137;51.436;6.544;2023-05-10T13:34:00;12.30;;;11.00;;
14116;SDS011;7137;51.436;6.544;2023-05-10T13:37:04;13.33;;;12.00;;
14116;SDS011;7137;51.436;6.544;2023-05-10T13:40:06;13.93;;;12.47;;
14116;SDS011;7137;51.436;6.544;2023-05-10T13:43:08;15.57;;;14.07;;
14116;SDS011;7137;51.436;6.544;2023-05-10T13:46:10;16.87;;;15.23;;
14116;SDS011;7137;51.436;6.544;2023-05-10T13:49:11;15.97;;;14.40;;
14116;SDS011;7137;51.436;6.544;2023-05-10T13:52:14;15.17;;;13.67;;
14116;SDS011;7137;51.436;6.544;2023-05-10T13:55:16;15.27;;;13.77;;
14116;SDS011;7137;51.436;6.544;2023-05-10T13:58:17;15.17;;;13.67;;
14116;SDS011;7137;51.436;6.544;2023-05-10T14:01:19;15.10;;;13.60;;
14116;SDS011;7137;51.436;6.544;2023-05-10T14:04:20;14.77;;;13.23;;
14116;SDS011;7137;51.436;6.544;2023-05-10T14:07:23;12.60;;;11.30;;
14116;SDS011;7137;51.436;6.544;2023-05-10T14:10:25;16.80;;;13.70;;
14116;SDS011;7137;51.436;6.544;2023-05-10T14:13:26;12.53;;;11.30;;
14116;SDS011;7137;51.436;6.544;2023-05-10T14:16:28;12.07;;;10.87;;
14116;SDS011;7137;51.436;6.544;2023-05-10T14:19:30;12.33;;;10.97;;
14116;SDS011;7137;51.436;6.544;2023-05-10T14:22:34;12.23;;;11.00;;
14116;SDS011;7137;51.436;6.544;2023-05-10T14:25:35;11.43;;;9.87;;
14116;SDS011;7137;51.436;6.544;2023-05-10T14:28:38;12.30;;;10.97;;
14116;SDS011;7137;51.436;6.544;2023-05-10T14:31:39;13.03;;;11.73;;
14116;SDS011;7137;51.436;6.544;2023-05-10T14:34:41;14.23;;;12.73;;
14116;SDS011;7137;51.436;6.544;2023-05-10T14:37:44;13.20;;;11.80;;
14116;SDS011;7137;51.436;6.544;2023-05-10T14:40:45;13.80;;;12.40;;
14116;SDS011;7137;51.436;6.544;2023-05-10T14:43:47;10.57;;;8.63;;
14116;SDS011;7137;51.436;6.544;2023-05-10T14:46:48;6.40;;;5.00;;
14116;SDS011;7137;51.436;6.544;2023-05-10T14:49:50;6.70;;;4.30;;
14116;SDS011;7137;51.436;6.544;2023-05-10T14:52:53;4.87;;;3.43;;
14116;SDS011;7137;51.436;6.544;2023-05-10T14:55:54;4.43;;;3.00;;
14116;SDS011;7137;51.436;6.544;2023-05-10T14:58:57;5.00;;;2.23;;
14116;SDS011;7137;51.436;6.544;2023-05-10T15:01:59;4.00;;;2.23;;
14116;SDS011;7137;51.436;6.544;2023-05-10T15:05:00;4.60;;;2.67;;
14116;SDS011;7137;51.436;6.544;2023-05-10T15:08:03;4.93;;;3.00;;
14116;SDS011;7137;51.436;6.544;2023-05-10T15:11:05;4.80;;;3.33;;
14116;SDS011;7137;51.436;6.544;2023-05-10T15:14:07;9.63;;;4.10;;
14116;SDS011;7137;51.436;6.544;2023-05-10T15:17:08;6.37;;;4.27;;
14116;SDS011;7137;51.436;6.544;2023-05-10T15:20:10;6.70;;;4.60;;
14116;SDS011;7137;51.436;6.544;2023-05-10T15:23:14;6.93;;;4.53;;
14116;SDS011;7137;51.436;6.544;2023-05-10T15:26:15;6.33;;;4.60;;
14116;SDS011;7137;51.436;6.544;2023-05-10T15:29:17;8.13;;;4.80;;
14116;SDS011;7137;51.436;6.544;2023-05-10T15:32:19;7.13;;;5.00;;
14116;SDS011;7137;51.436;6.544;2023-05-10T15:35:21;8.00;;;5.63;;
14116;SDS011;7137;51.436;6.544;2023-05-10T15:38:24;8.10;;;5.50;;
14116;SDS011;7137;51.436;6.544;2023-05-10T15:41:25;7.90;;;6.47;;
14116;SDS011;7137;51.436;6.544;2023-05-10T15:44:27;8.00;;;6.57;;
14116;SDS011;7137;51.436;6.544;2023-05-10T15:47:29;7.93;;;7.13;;
14116;SDS011;7137;51.436;6.544;2023-05-10T15:50:31;7.90;;;6.90;;
14116;SDS011;7137;51.436;6.544;2023-05-10T15:53:34;7.93;;;6.40;;
14116;SDS011;7137;51.436;6.544;2023-05-10T15:56:36;5.97;;;4.40;;
14116;SDS011;7137;51.436;6.544;2023-05-10T15:59:38;6.97;;;3.93;;
14116;SDS011;7137;51.436;6.544;2023-05-10T16:02:39;5.83;;;4.03;;
14116;SDS011;7137;51.436;6.544;2023-05-10T16:05:41;5.97;;;3.90;;
14116;SDS011;7137;51.436;6.544;2023-05-10T16:08:44;5.40;;;3.30;;
14116;SDS011;7137;51.436;6.544;2023-05-10T16:11:46;5.60;;;2.57;;
14116;SDS011;7137;51.436;6.544;2023-05-10T16:14:48;4.20;;;2.87;;
14116;SDS011;7137;51.436;6.544;2023-05-10T16:17:49;4.00;;;2.57;;
14116;SDS011;7137;51.436;6.544;2023-05-10T16:20:51;4.47;;;2.60;;
14116;SDS011;7137;51.436;6.544;2023-05-10T16:23:54;4.23;;;2.50;;
14116;SDS011;7137;51.436;6.544;2023-05-10T16:26:56;4.30;;;2.73;;
14116;SDS011;7137;51.436;6.544;2023-05-10T16:29:58;4.23;;;2.70;;
14116;SDS011;7137;51.436;6.544;2023-05-10T16:32:59;4.87;;;3.10;;
14116;SDS011;7137;51.436;6.544;2023-05-10T16:36:01;4.60;;;2.77;;
14116;SDS011;7137;51.436;6.544;2023-05-10T16:39:06;6.40;;;3.20;;
14116;SDS011;7137;51.436;6.544;2023-05-10T16:42:08;5.23;;;3.00;;
14116;SDS011;7137;51.436;6.544;2023-05-10T16:45:10;8.70;;;4.33;;
14116;SDS011;7137;51.436;6.544;2023-05-10T16:48:12;6.93;;;3.70;;
14116;SDS011;7137;51.436;6.544;2023-05-10T16:51:14;5.90;;;3.23;;
14116;SDS011;7137;51.436;6.544;2023-05-10T16:54:17;4.63;;;2.90;;
14116;SDS011;7137;51.436;6.544;2023-05-10T16:57:19;5.23;;;3.30;;
14116;SDS011;7137;51.436;6.544;2023-05-10T17:00:21;3.53;;;2.80;;
14116;SDS011;7137;51.436;6.544;2023-05-10T17:03:23;4.87;;;2.93;;
14116;SDS011;7137;51.436;6.544;2023-05-10T17:06:24;5.57;;;3.03;;
14116;SDS011;7137;51.436;6.544;2023-05-10T17:09:27;4.40;;;3.00;;
14116;SDS011;7137;51.436;6.544;2023-05-10T17:12:29;4.50;;;3.27;;
14116;SDS011;7137;51.436;6.544;2023-05-10T17:15:31;5.57;;;3.80;;
14116;SDS011;7137;51.436;6.544;2023-05-10T17:18:32;8.80;;;6.73;;
14116;SDS011;7137;51.436;6.544;2023-05-10T17:21:34;4.90;;;3.67;;
14116;SDS011;7137;51.436;6.544;2023-05-10T17:24:37;7.03;;;4.20;;
14116;SDS011;7137;51.436;6.544;2023-05-10T17:27:38;6.60;;;4.47;;
14116;SDS011;7137;51.436;6.544;2023-05-10T17:30:40;5.10;;;4.23;;
14116;SDS011;7137;51.436;6.544;2023-05-10T17:33:41;6.17;;;5.10;;
14116;SDS011;7137;51.436;6.544;2023-05-10T17:36:43;6.67;;;5.60;;
14116;SDS011;7137;51.436;6.544;2023-05-10T17:39:46;6.77;;;5.63;;
14116;SDS011;7137;51.436;6.544;2023-05-10T17:42:47;7.00;;;6.00;;
14116;SDS011;7137;51.436;6.544;2023-05-10T17:45:49;9.27;;;7.40;;
14116;SDS011;7137;51.436;6.544;2023-05-10T17:48:50;10.57;;;8.97;;
14116;SDS011;7137;51.436;6.544;2023-05-10T17:51:52;9.10;;;7.90;;
14116;SDS011;7137;51.436;6.544;2023-05-10T17:54:55;11.10;;;10.00;;
14116;SDS011;7137;51.436;6.544;2023-05-10T17:57:57;11.70;;;10.50;;
14116;SDS011;7137;51.436;6.544;2023-05-10T18:00:59;13.77;;;12.37;;
14116;SDS011;7137;51.436;6.544;2023-05-10T18:04:00;12.97;;;11.67;;
14116;SDS011;7137;51.436;6.544;2023-05-10T18:07:02;12.23;;;11.03;;
14116;SDS011;7137;51.436;6.544;2023-05-10T18:10:05;12.90;;;11.47;;
14116;SDS011;7137;51.436;6.544;2023-05-10T18:13:08;13.90;;;12.03;;
14116;SDS011;7137;51.436;6.544;2023-05-10T18:16:09;12.87;;;11.67;;
14116;SDS011;7137;51.436;6.544;2023-05-10T18:19:12;14.70;;;13.30;;